sensor_id;sensor_type;location;lat;lon;timestamp;P1;durP1;ratioP1;P2;durP2;ratioP2
3341;SDS011;1684;50.748;6.154;2023-03-21T00:01:00;15.63;;;7.13;;
3341;SDS011;1684;50.748;6.154;2023-03-21T00:03:30;16.97;;;7.90;;
3341;SDS011;1684;50.748;6.154;2023-03-21T00:06:03;14.00;;;6.67;;
3341;SDS011;1684;50.748;6.154;2023-03-21T00:08:31;19.73;;;7.67;;
3341;SDS011;1684;50.748;6.154;2023-03-21T00:11:01;15.27;;;6.27;;
3341;SDS011;1684;50.748;6.154;2023-03-21T00:13:29;17.30;;;7.33;;
3341;SDS011;1684;50.748;6.154;2023-03-21T00:16:03;16.13;;;7.50;;
3341;SDS011;1684;50.748;6.154;2023-03-21T00:18:45;11.10;;;6.30;;
3341;SDS011;1684;50.748;6.154;2023-03-21T00:21:14;10.83;;;6.40;;
3341;SDS011;1684;50.748;6.154;2023-03-21T00:24:04;11.67;;;5.87;;
3341;SDS011;1684;50.748;6.154;2023-03-21T00:26:33;20.47;;;8.53;;
3341;SDS011;1684;50.748;6.154;2023-03-21T00:29:03;13.23;;;7.37;;
3341;SDS011;1684;50.748;6.154;2023-03-21T00:31:33;17.60;;;6.40;;
3341;SDS011;1684;50.748;6.154;2023-03-21T00:34:01;12.20;;;7.10;;
3341;SDS011;1684;50.748;6.154;2023-03-21T00:36:29;18.47;;;6.00;;
3341;SDS011;1684;50.748;6.154;2023-03-21T00:38:58;18.07;;;6.27;;
3341;SDS011;1684;50.748;6.154;2023-03-21T00:41:26;14.93;;;7.67;;
3341;SDS011;1684;50.748;6.154;2023-03-21T00:44:11;14.47;;;6.60;;
3341;SDS011;1684;50.748;6.154;2023-03-21T00:46:42;21.77;;;7.30;;
3341;SDS011;1684;50.748;6.154;2023-03-21T00:49:30;12.13;;;7.20;;
3341;SDS011;1684;50.748;6.154;2023-03-21T00:51:59;16.10;;;8.13;;
3341;SDS011;1684;50.748;6.154;2023-03-21T00:54:43;18.37;;;6.80;;
3341;SDS011;1684;50.748;6.154;2023-03-21T00:57:11;11.73;;;5.57;;
3341;SDS011;1684;50.748;6.154;2023-03-21T00:59:40;11.33;;;5.47;;
3341;SDS011;1684;50.748;6.154;2023-03-21T01:02:09;11.13;;;6.40;;
3341;SDS011;1684;50.748;6.154;2023-03-21T01:04:40;12.23;;;6.43;;
3341;SDS011;1684;50.748;6.154;2023-03-21T01:07:08;13.47;;;5.80;;
3341;SDS011;1684;50.748;6.154;2023-03-21T01:09:36;15.13;;;7.27;;
3341;SDS011;1684;50.748;6.154;2023-03-21T01:12:05;13.60;;;6.60;;
3341;SDS011;1684;50.748;6.154;2023-03-21T01:14:33;10.40;;;6.80;;
3341;SDS011;1684;50.748;6.154;2023-03-21T01:17:02;13.90;;;7.73;;
3341;SDS011;1684;50.748;6.154;2023-03-21T01:19:31;12.87;;;5.20;;
3341;SDS011;1684;50.748;6.154;2023-03-21T01:22:16;15.10;;;5.40;;
3341;SDS011;1684;50.748;6.154;2023-03-21T01:24:45;12.30;;;6.23;;
3341;SDS011;1684;50.748;6.154;2023-03-21T01:27:23;14.53;;;6.77;;
3341;SDS011;1684;50.748;6.154;2023-03-21T01:29:51;9.70;;;4.90;;
3341;SDS011;1684;50.748;6.154;2023-03-21T01:32:20;14.20;;;6.87;;
3341;SDS011;1684;50.748;6.154;2023-03-21T01:34:49;13.07;;;6.10;;
3341;SDS011;1684;50.748;6.154;2023-03-21T01:37:17;13.60;;;5.90;;
3341;SDS011;1684;50.748;6.154;2023-03-21T01:39:46;15.23;;;7.07;;
3341;SDS011;1684;50.748;6.154;2023-03-21T01:42:14;16.03;;;5.83;;
3341;SDS011;1684;50.748;6.154;2023-03-21T01:44:52;10.87;;;7.53;;
3341;SDS011;1684;50.748;6.154;2023-03-21T01:47:20;13.10;;;7.33;;
3341;SDS011;1684;50.748;6.154;2023-03-21T01:49:51;12.40;;;6.07;;
3341;SDS011;1684;50.748;6.154;2023-03-21T01:52:23;11.70;;;6.30;;
3341;SDS011;1684;50.748;6.154;2023-03-21T01:55:02;12.43;;;6.50;;
3341;SDS011;1684;50.748;6.154;2023-03-21T01:57:33;10.97;;;6.43;;
3341;SDS011;1684;50.748;6.154;2023-03-21T02:00:14;18.20;;;6.63;;
3341;SDS011;1684;50.748;6.154;2023-03-21T02:02:43;10.30;;;6.20;;
3341;SDS011;1684;50.748;6.154;2023-03-21T02:05:21;14.57;;;6.10;;
3341;SDS011;1684;50.748;6.154;2023-03-21T02:07:51;12.83;;;6.13;;
3341;SDS011;1684;50.748;6.154;2023-03-21T02:10:19;14.50;;;6.03;;
3341;SDS011;1684;50.748;6.154;2023-03-21T02:12:48;11.93;;;5.43;;
3341;SDS011;1684;50.748;6.154;2023-03-21T02:15:20;15.13;;;5.87;;
3341;SDS011;1684;50.748;6.154;2023-03-21T02:17:51;13.60;;;5.53;;
3341;SDS011;1684;50.748;6.154;2023-03-21T02:20:39;14.03;;;6.57;;
3341;SDS011;1684;50.748;6.154;2023-03-21T02:23:14;13.37;;;6.60;;
3341;SDS011;1684;50.748;6.154;2023-03-21T02:25:53;18.30;;;6.30;;
3341;SDS011;1684;50.748;6.154;2023-03-21T02:28:23;12.27;;;7.23;;
3341;SDS011;1684;50.748;6.154;2023-03-21T02:31:00;9.20;;;4.87;;
3341;SDS011;1684;50.748;6.154;2023-03-21T02:33:47;15.87;;;6.53;;
3341;SDS011;1684;50.748;6.154;2023-03-21T02:36:25;14.83;;;5.80;;
3341;SDS011;1684;50.748;6.154;2023-03-21T02:38:57;13.93;;;5.77;;
3341;SDS011;1684;50.748;6.154;2023-03-21T02:41:31;12.50;;;5.80;;
3341;SDS011;1684;50.748;6.154;2023-03-21T02:44:06;9.77;;;5.13;;
3341;SDS011;1684;50.748;6.154;2023-03-21T02:46:37;11.23;;;5.70;;
3341;SDS011;1684;50.748;6.154;2023-03-21T02:49:15;15.17;;;5.60;;
3341;SDS011;1684;50.748;6.154;2023-03-21T02:51:44;14.77;;;5.87;;
3341;SDS011;1684;50.748;6.154;2023-03-21T02:54:15;11.53;;;5.17;;
3341;SDS011;1684;50.748;6.154;2023-03-21T02:57:04;11.70;;;6.10;;
3341;SDS011;1684;50.748;6.154;2023-03-21T02:59:33;11.90;;;5.27;;
3341;SDS011;1684;50.748;6.154;2023-03-21T03:02:12;13.33;;;6.07;;
3341;SDS011;1684;50.748;6.154;2023-03-21T03:04:42;16.33;;;5.10;;
3341;SDS011;1684;50.748;6.154;2023-03-21T03:07:12;10.80;;;4.87;;
3341;SDS011;1684;50.748;6.154;2023-03-21T03:09:50;14.30;;;5.57;;
3341;SDS011;1684;50.748;6.154;2023-03-21T03:12:25;12.40;;;5.13;;
3341;SDS011;1684;50.748;6.154;2023-03-21T03:14:56;11.63;;;5.23;;
3341;SDS011;1684;50.748;6.154;2023-03-21T03:17:34;12.80;;;5.10;;
3341;SDS011;1684;50.748;6.154;2023-03-21T03:20:07;14.57;;;4.90;;
3341;SDS011;1684;50.748;6.154;2023-03-21T03:22:45;10.53;;;6.07;;
3341;SDS011;1684;50.748;6.154;2023-03-21T03:25:18;13.27;;;5.90;;
3341;SDS011;1684;50.748;6.154;2023-03-21T03:28:05;9.77;;;5.33;;
3341;SDS011;1684;50.748;6.154;2023-03-21T03:30:34;12.33;;;6.53;;
3341;SDS011;1684;50.748;6.154;2023-03-21T03:33:16;16.57;;;6.20;;
3341;SDS011;1684;50.748;6.154;2023-03-21T03:35:48;13.37;;;6.33;;
3341;SDS011;1684;50.748;6.154;2023-03-21T03:38:30;15.73;;;6.40;;
3341;SDS011;1684;50.748;6.154;2023-03-21T03:41:01;14.23;;;6.43;;
3341;SDS011;1684;50.748;6.154;2023-03-21T03:43:32;11.93;;;6.20;;
3341;SDS011;1684;50.748;6.154;2023-03-21T03:46:05;12.20;;;5.30;;
3341;SDS011;1684;50.748;6.154;2023-03-21T03:48:39;16.10;;;6.73;;
3341;SDS011;1684;50.748;6.154;2023-03-21T03:51:13;14.00;;;6.20;;
3341;SDS011;1684;50.748;6.154;2023-03-21T03:53:43;14.17;;;6.83;;
3341;SDS011;1684;50.748;6.154;2023-03-21T03:56:14;12.60;;;5.67;;
3341;SDS011;1684;50.748;6.154;2023-03-21T03:58:42;17.83;;;7.33;;
3341;SDS011;1684;50.748;6.154;2023-03-21T04:01:11;11.50;;;5.73;;
3341;SDS011;1684;50.748;6.154;2023-03-21T04:03:40;10.20;;;5.63;;
3341;SDS011;1684;50.748;6.154;2023-03-21T04:06:23;13.57;;;6.20;;
3341;SDS011;1684;50.748;6.154;2023-03-21T04:08:54;13.57;;;6.07;;
3341;SDS011;1684;50.748;6.154;2023-03-21T04:11:26;11.17;;;5.80;;
3341;SDS011;1684;50.748;6.154;2023-03-21T04:13:55;11.17;;;5.80;;
3341;SDS011;1684;50.748;6.154;2023-03-21T04:16:23;11.10;;;5.87;;
3341;SDS011;1684;50.748;6.154;2023-03-21T04:18:51;15.47;;;7.07;;
3341;SDS011;1684;50.748;6.154;2023-03-21T04:21:19;15.20;;;7.27;;
3341;SDS011;1684;50.748;6.154;2023-03-21T04:23:48;13.13;;;6.20;;
3341;SDS011;1684;50.748;6.154;2023-03-21T04:26:16;15.60;;;6.20;;
3341;SDS011;1684;50.748;6.154;2023-03-21T04:28:47;14.43;;;5.80;;
3341;SDS011;1684;50.748;6.154;2023-03-21T04:31:16;17.30;;;6.67;;
3341;SDS011;1684;50.748;6.154;2023-03-21T04:33:51;16.53;;;5.80;;
3341;SDS011;1684;50.748;6.154;2023-03-21T04:36:21;10.80;;;5.57;;
3341;SDS011;1684;50.748;6.154;2023-03-21T04:38:53;11.20;;;5.80;;
3341;SDS011;1684;50.748;6.154;2023-03-21T04:41:22;15.43;;;7.37;;
3341;SDS011;1684;50.748;6.154;2023-03-21T04:43:52;12.63;;;6.70;;
3341;SDS011;1684;50.748;6.154;2023-03-21T04:46:22;19.17;;;5.70;;
3341;SDS011;1684;50.748;6.154;2023-03-21T04:48:50;15.43;;;6.77;;
3341;SDS011;1684;50.748;6.154;2023-03-21T04:51:18;14.20;;;6.20;;
3341;SDS011;1684;50.748;6.154;2023-03-21T04:53:46;14.73;;;6.40;;
3341;SDS011;1684;50.748;6.154;2023-03-21T04:56:17;16.73;;;6.77;;
3341;SDS011;1684;50.748;6.154;2023-03-21T04:58:46;14.40;;;6.87;;
3341;SDS011;1684;50.748;6.154;2023-03-21T05:01:15;13.90;;;6.27;;
3341;SDS011;1684;50.748;6.154;2023-03-21T05:03:46;11.47;;;6.60;;
3341;SDS011;1684;50.748;6.154;2023-03-21T05:06:14;24.43;;;9.37;;
3341;SDS011;1684;50.748;6.154;2023-03-21T05:08:42;13.80;;;7.13;;
3341;SDS011;1684;50.748;6.154;2023-03-21T05:11:10;16.60;;;6.43;;
3341;SDS011;1684;50.748;6.154;2023-03-21T05:13:39;13.77;;;8.20;;
3341;SDS011;1684;50.748;6.154;2023-03-21T05:16:08;16.57;;;9.23;;
3341;SDS011;1684;50.748;6.154;2023-03-21T05:18:38;17.93;;;8.17;;
3341;SDS011;1684;50.748;6.154;2023-03-21T05:21:07;15.70;;;7.93;;
3341;SDS011;1684;50.748;6.154;2023-03-21T05:23:36;15.80;;;7.97;;
3341;SDS011;1684;50.748;6.154;2023-03-21T05:26:05;15.80;;;5.57;;
3341;SDS011;1684;50.748;6.154;2023-03-21T05:28:33;16.27;;;7.57;;
3341;SDS011;1684;50.748;6.154;2023-03-21T05:31:02;15.20;;;5.70;;
3341;SDS011;1684;50.748;6.154;2023-03-21T05:33:30;17.13;;;7.33;;
3341;SDS011;1684;50.748;6.154;2023-03-21T05:36:00;12.00;;;6.57;;
3341;SDS011;1684;50.748;6.154;2023-03-21T05:38:28;16.10;;;6.90;;
3341;SDS011;1684;50.748;6.154;2023-03-21T05:40:56;16.00;;;6.57;;
3341;SDS011;1684;50.748;6.154;2023-03-21T05:43:25;16.50;;;7.37;;
3341;SDS011;1684;50.748;6.154;2023-03-21T05:45:54;11.43;;;6.20;;
3341;SDS011;1684;50.748;6.154;2023-03-21T05:48:23;10.23;;;5.20;;
3341;SDS011;1684;50.748;6.154;2023-03-21T05:50:52;12.03;;;6.40;;
3341;SDS011;1684;50.748;6.154;2023-03-21T05:53:21;15.47;;;6.50;;
3341;SDS011;1684;50.748;6.154;2023-03-21T05:55:49;13.23;;;6.27;;
3341;SDS011;1684;50.748;6.154;2023-03-21T05:58:18;8.50;;;4.90;;
3341;SDS011;1684;50.748;6.154;2023-03-21T06:00:46;13.87;;;5.80;;
3341;SDS011;1684;50.748;6.154;2023-03-21T06:03:15;10.50;;;6.10;;
3341;SDS011;1684;50.748;6.154;2023-03-21T06:05:43;17.17;;;6.27;;
3341;SDS011;1684;50.748;6.154;2023-03-21T06:08:11;9.50;;;6.00;;
3341;SDS011;1684;50.748;6.154;2023-03-21T06:10:41;15.43;;;5.93;;
3341;SDS011;1684;50.748;6.154;2023-03-21T06:13:09;13.40;;;5.53;;
3341;SDS011;1684;50.748;6.154;2023-03-21T06:15:37;12.77;;;5.50;;
3341;SDS011;1684;50.748;6.154;2023-03-21T06:18:07;15.10;;;6.20;;
3341;SDS011;1684;50.748;6.154;2023-03-21T06:20:37;15.83;;;5.70;;
3341;SDS011;1684;50.748;6.154;2023-03-21T06:23:05;20.33;;;5.80;;
3341;SDS011;1684;50.748;6.154;2023-03-21T06:25:34;16.90;;;5.60;;
3341;SDS011;1684;50.748;6.154;2023-03-21T06:28:04;10.80;;;5.13;;
3341;SDS011;1684;50.748;6.154;2023-03-21T06:30:34;10.13;;;6.30;;
3341;SDS011;1684;50.748;6.154;2023-03-21T06:33:03;13.13;;;5.73;;
3341;SDS011;1684;50.748;6.154;2023-03-21T06:35:31;13.80;;;5.37;;
3341;SDS011;1684;50.748;6.154;2023-03-21T06:37:59;15.23;;;5.60;;
3341;SDS011;1684;50.748;6.154;2023-03-21T06:40:28;13.90;;;5.70;;
3341;SDS011;1684;50.748;6.154;2023-03-21T06:42:57;14.47;;;5.53;;
3341;SDS011;1684;50.748;6.154;2023-03-21T06:45:26;11.33;;;5.80;;
3341;SDS011;1684;50.748;6.154;2023-03-21T06:47:55;10.63;;;5.23;;
3341;SDS011;1684;50.748;6.154;2023-03-21T06:50:23;14.23;;;5.30;;
3341;SDS011;1684;50.748;6.154;2023-03-21T06:52:53;9.73;;;6.00;;
3341;SDS011;1684;50.748;6.154;2023-03-21T06:55:22;8.57;;;5.20;;
3341;SDS011;1684;50.748;6.154;2023-03-21T06:57:52;10.47;;;5.90;;
3341;SDS011;1684;50.748;6.154;2023-03-21T07:00:21;13.73;;;5.50;;
3341;SDS011;1684;50.748;6.154;2023-03-21T07:02:51;10.00;;;4.60;;
3341;SDS011;1684;50.748;6.154;2023-03-21T07:05:19;11.73;;;5.67;;
3341;SDS011;1684;50.748;6.154;2023-03-21T07:07:47;7.43;;;3.87;;
3341;SDS011;1684;50.748;6.154;2023-03-21T07:10:16;7.10;;;3.87;;
3341;SDS011;1684;50.748;6.154;2023-03-21T07:12:45;8.20;;;4.47;;
3341;SDS011;1684;50.748;6.154;2023-03-21T07:15:14;6.60;;;4.20;;
3341;SDS011;1684;50.748;6.154;2023-03-21T07:17:42;9.00;;;3.40;;
3341;SDS011;1684;50.748;6.154;2023-03-21T07:20:12;12.00;;;3.93;;
3341;SDS011;1684;50.748;6.154;2023-03-21T07:22:40;9.83;;;3.83;;
3341;SDS011;1684;50.748;6.154;2023-03-21T07:25:09;12.10;;;3.77;;
3341;SDS011;1684;50.748;6.154;2023-03-21T07:27:38;9.90;;;3.20;;
3341;SDS011;1684;50.748;6.154;2023-03-21T07:30:07;12.13;;;4.73;;
3341;SDS011;1684;50.748;6.154;2023-03-21T07:32:36;10.07;;;4.40;;
3341;SDS011;1684;50.748;6.154;2023-03-21T07:35:08;13.53;;;3.70;;
3341;SDS011;1684;50.748;6.154;2023-03-21T07:37:39;7.37;;;3.87;;
3341;SDS011;1684;50.748;6.154;2023-03-21T07:40:12;6.40;;;3.37;;
3341;SDS011;1684;50.748;6.154;2023-03-21T07:42:41;7.50;;;3.70;;
3341;SDS011;1684;50.748;6.154;2023-03-21T07:45:09;10.20;;;3.70;;
3341;SDS011;1684;50.748;6.154;2023-03-21T07:47:43;10.20;;;4.10;;
3341;SDS011;1684;50.748;6.154;2023-03-21T07:50:11;8.40;;;3.97;;
3341;SDS011;1684;50.748;6.154;2023-03-21T07:52:41;13.47;;;4.23;;
3341;SDS011;1684;50.748;6.154;2023-03-21T07:55:10;8.53;;;3.43;;
3341;SDS011;1684;50.748;6.154;2023-03-21T07:57:38;8.37;;;3.17;;
3341;SDS011;1684;50.748;6.154;2023-03-21T08:00:07;9.83;;;4.30;;
3341;SDS011;1684;50.748;6.154;2023-03-21T08:02:36;5.93;;;3.87;;
3341;SDS011;1684;50.748;6.154;2023-03-21T08:05:05;12.23;;;4.03;;
3341;SDS011;1684;50.748;6.154;2023-03-21T08:07:35;6.97;;;3.43;;
3341;SDS011;1684;50.748;6.154;2023-03-21T08:10:05;7.60;;;3.07;;
3341;SDS011;1684;50.748;6.154;2023-03-21T08:12:34;14.20;;;4.50;;
3341;SDS011;1684;50.748;6.154;2023-03-21T08:15:02;5.80;;;3.80;;
3341;SDS011;1684;50.748;6.154;2023-03-21T08:17:30;7.83;;;4.33;;
3341;SDS011;1684;50.748;6.154;2023-03-21T08:19:58;9.50;;;5.00;;
3341;SDS011;1684;50.748;6.154;2023-03-21T08:22:27;12.30;;;4.97;;
3341;SDS011;1684;50.748;6.154;2023-03-21T08:24:55;7.80;;;4.27;;
3341;SDS011;1684;50.748;6.154;2023-03-21T08:27:25;10.07;;;4.50;;
3341;SDS011;1684;50.748;6.154;2023-03-21T08:29:53;9.90;;;4.33;;
3341;SDS011;1684;50.748;6.154;2023-03-21T08:32:22;11.60;;;5.70;;
3341;SDS011;1684;50.748;6.154;2023-03-21T08:34:54;10.40;;;5.43;;
3341;SDS011;1684;50.748;6.154;2023-03-21T08:37:23;17.90;;;4.23;;
3341;SDS011;1684;50.748;6.154;2023-03-21T08:39:52;7.23;;;4.17;;
3341;SDS011;1684;50.748;6.154;2023-03-21T08:42:20;7.97;;;4.20;;
3341;SDS011;1684;50.748;6.154;2023-03-21T08:44:56;15.23;;;5.93;;
3341;SDS011;1684;50.748;6.154;2023-03-21T08:47:24;13.23;;;5.27;;
3341;SDS011;1684;50.748;6.154;2023-03-21T08:49:52;9.20;;;4.50;;
3341;SDS011;1684;50.748;6.154;2023-03-21T08:52:24;9.47;;;4.63;;
3341;SDS011;1684;50.748;6.154;2023-03-21T08:54:52;10.37;;;4.70;;
3341;SDS011;1684;50.748;6.154;2023-03-21T08:57:21;14.03;;;6.73;;
3341;SDS011;1684;50.748;6.154;2023-03-21T08:59:49;8.97;;;4.43;;
3341;SDS011;1684;50.748;6.154;2023-03-21T09:02:19;12.80;;;5.37;;
3341;SDS011;1684;50.748;6.154;2023-03-21T09:04:47;10.17;;;4.60;;
3341;SDS011;1684;50.748;6.154;2023-03-21T09:07:18;8.10;;;5.43;;
3341;SDS011;1684;50.748;6.154;2023-03-21T09:09:47;6.83;;;3.80;;
3341;SDS011;1684;50.748;6.154;2023-03-21T09:12:38;9.47;;;4.00;;
3341;SDS011;1684;50.748;6.154;2023-03-21T09:15:07;8.70;;;3.67;;
3341;SDS011;1684;50.748;6.154;2023-03-21T09:17:38;9.30;;;4.70;;
3341;SDS011;1684;50.748;6.154;2023-03-21T09:20:08;5.83;;;3.77;;
3341;SDS011;1684;50.748;6.154;2023-03-21T09:22:44;9.07;;;4.10;;
3341;SDS011;1684;50.748;6.154;2023-03-21T09:25:12;6.80;;;3.77;;
3341;SDS011;1684;50.748;6.154;2023-03-21T09:27:41;9.77;;;4.70;;
3341;SDS011;1684;50.748;6.154;2023-03-21T09:30:11;8.80;;;4.33;;
3341;SDS011;1684;50.748;6.154;2023-03-21T09:32:42;10.30;;;3.90;;
3341;SDS011;1684;50.748;6.154;2023-03-21T09:35:13;7.70;;;3.40;;
3341;SDS011;1684;50.748;6.154;2023-03-21T09:37:44;5.63;;;2.93;;
3341;SDS011;1684;50.748;6.154;2023-03-21T09:40:13;12.30;;;4.20;;
3341;SDS011;1684;50.748;6.154;2023-03-21T09:42:47;10.17;;;5.03;;
3341;SDS011;1684;50.748;6.154;2023-03-21T09:45:17;10.20;;;3.80;;
3341;SDS011;1684;50.748;6.154;2023-03-21T09:47:50;7.03;;;3.90;;
3341;SDS011;1684;50.748;6.154;2023-03-21T09:50:19;7.50;;;3.40;;
3341;SDS011;1684;50.748;6.154;2023-03-21T09:52:53;5.83;;;3.07;;
3341;SDS011;1684;50.748;6.154;2023-03-21T09:55:23;7.70;;;3.50;;
3341;SDS011;1684;50.748;6.154;2023-03-21T09:57:59;9.40;;;4.47;;
3341;SDS011;1684;50.748;6.154;2023-03-21T10:00:31;7.97;;;3.43;;
3341;SDS011;1684;50.748;6.154;2023-03-21T10:03:04;6.83;;;2.90;;
3341;SDS011;1684;50.748;6.154;2023-03-21T10:05:35;8.60;;;4.40;;
3341;SDS011;1684;50.748;6.154;2023-03-21T10:08:07;10.63;;;4.40;;
3341;SDS011;1684;50.748;6.154;2023-03-21T10:10:36;9.20;;;3.00;;
3341;SDS011;1684;50.748;6.154;2023-03-21T10:13:09;7.10;;;2.97;;
3341;SDS011;1684;50.748;6.154;2023-03-21T10:15:40;5.90;;;3.93;;
3341;SDS011;1684;50.748;6.154;2023-03-21T10:18:11;8.40;;;3.30;;
3341;SDS011;1684;50.748;6.154;2023-03-21T10:20:41;7.53;;;4.00;;
3341;SDS011;1684;50.748;6.154;2023-03-21T10:23:11;5.30;;;3.03;;
3341;SDS011;1684;50.748;6.154;2023-03-21T10:25:40;7.40;;;3.80;;
3341;SDS011;1684;50.748;6.154;2023-03-21T10:28:11;7.73;;;3.30;;
3341;SDS011;1684;50.748;6.154;2023-03-21T10:30:43;5.93;;;3.17;;
3341;SDS011;1684;50.748;6.154;2023-03-21T10:33:14;7.23;;;3.30;;
3341;SDS011;1684;50.748;6.154;2023-03-21T10:35:48;7.80;;;3.83;;
3341;SDS011;1684;50.748;6.154;2023-03-21T10:38:18;7.50;;;4.00;;
3341;SDS011;1684;50.748;6.154;2023-03-21T10:40:47;6.07;;;3.23;;
3341;SDS011;1684;50.748;6.154;2023-03-21T10:43:24;7.00;;;4.00;;
3341;SDS011;1684;50.748;6.154;2023-03-21T10:46:02;5.57;;;3.77;;
3341;SDS011;1684;50.748;6.154;2023-03-21T10:48:35;6.47;;;3.90;;
3341;SDS011;1684;50.748;6.154;2023-03-21T10:51:04;10.70;;;3.90;;
3341;SDS011;1684;50.748;6.154;2023-03-21T10:53:34;7.83;;;3.73;;
3341;SDS011;1684;50.748;6.154;2023-03-21T10:56:05;8.93;;;4.30;;
3341;SDS011;1684;50.748;6.154;2023-03-21T10:58:35;5.80;;;3.80;;
3341;SDS011;1684;50.748;6.154;2023-03-21T11:01:06;7.33;;;4.17;;
3341;SDS011;1684;50.748;6.154;2023-03-21T11:03:36;11.53;;;4.33;;
3341;SDS011;1684;50.748;6.154;2023-03-21T11:06:11;5.90;;;3.70;;
3341;SDS011;1684;50.748;6.154;2023-03-21T11:08:42;7.23;;;3.80;;
3341;SDS011;1684;50.748;6.154;2023-03-21T11:11:18;5.83;;;3.50;;
3341;SDS011;1684;50.748;6.154;2023-03-21T11:13:47;9.37;;;5.37;;
3341;SDS011;1684;50.748;6.154;2023-03-21T11:16:22;8.77;;;4.00;;
3341;SDS011;1684;50.748;6.154;2023-03-21T11:18:56;8.60;;;3.90;;
3341;SDS011;1684;50.748;6.154;2023-03-21T11:21:24;6.60;;;3.40;;
3341;SDS011;1684;50.748;6.154;2023-03-21T11:23:55;7.30;;;4.10;;
3341;SDS011;1684;50.748;6.154;2023-03-21T11:26:25;4.20;;;3.13;;
3341;SDS011;1684;50.748;6.154;2023-03-21T11:28:54;7.13;;;3.57;;
3341;SDS011;1684;50.748;6.154;2023-03-21T11:31:23;10.03;;;4.37;;
3341;SDS011;1684;50.748;6.154;2023-03-21T11:34:06;5.53;;;3.80;;
3341;SDS011;1684;50.748;6.154;2023-03-21T11:36:35;6.87;;;4.03;;
3341;SDS011;1684;50.748;6.154;2023-03-21T11:39:17;7.33;;;4.00;;
3341;SDS011;1684;50.748;6.154;2023-03-21T11:41:51;7.47;;;3.70;;
3341;SDS011;1684;50.748;6.154;2023-03-21T11:44:24;6.10;;;3.27;;
3341;SDS011;1684;50.748;6.154;2023-03-21T11:46:53;6.90;;;3.97;;
3341;SDS011;1684;50.748;6.154;2023-03-21T11:49:23;6.10;;;3.90;;
3341;SDS011;1684;50.748;6.154;2023-03-21T11:51:55;7.40;;;4.50;;
3341;SDS011;1684;50.748;6.154;2023-03-21T11:54:26;10.50;;;4.20;;
3341;SDS011;1684;50.748;6.154;2023-03-21T11:56:58;8.70;;;4.87;;
3341;SDS011;1684;50.748;6.154;2023-03-21T11:59:32;9.90;;;4.80;;
3341;SDS011;1684;50.748;6.154;2023-03-21T12:02:18;8.57;;;3.90;;
3341;SDS011;1684;50.748;6.154;2023-03-21T12:04:51;9.80;;;4.80;;
3341;SDS011;1684;50.748;6.154;2023-03-21T12:07:32;8.13;;;4.17;;
3341;SDS011;1684;50.748;6.154;2023-03-21T12:10:09;8.30;;;4.13;;
3341;SDS011;1684;50.748;6.154;2023-03-21T12:12:43;6.37;;;3.70;;
3341;SDS011;1684;50.748;6.154;2023-03-21T12:15:15;9.53;;;4.73;;
3341;SDS011;1684;50.748;6.154;2023-03-21T12:17:47;6.60;;;3.90;;
3341;SDS011;1684;50.748;6.154;2023-03-21T12:20:27;7.13;;;3.93;;
3341;SDS011;1684;50.748;6.154;2023-03-21T12:25:44;5.30;;;3.40;;
3341;SDS011;1684;50.748;6.154;2023-03-21T12:28:17;6.63;;;4.57;;
3341;SDS011;1684;50.748;6.154;2023-03-21T12:30:59;6.73;;;3.83;;
3341;SDS011;1684;50.748;6.154;2023-03-21T12:33:35;12.67;;;3.50;;
3341;SDS011;1684;50.748;6.154;2023-03-21T12:36:23;7.40;;;4.40;;
3341;SDS011;1684;50.748;6.154;2023-03-21T12:38:56;6.53;;;4.07;;
3341;SDS011;1684;50.748;6.154;2023-03-21T12:41:27;5.37;;;4.13;;
3341;SDS011;1684;50.748;6.154;2023-03-21T12:44:01;7.67;;;4.00;;
3341;SDS011;1684;50.748;6.154;2023-03-21T12:46:32;7.43;;;4.40;;
3341;SDS011;1684;50.748;6.154;2023-03-21T12:49:02;8.60;;;4.50;;
3341;SDS011;1684;50.748;6.154;2023-03-21T12:51:35;8.57;;;4.40;;
3341;SDS011;1684;50.748;6.154;2023-03-21T12:54:06;8.60;;;6.03;;
3341;SDS011;1684;50.748;6.154;2023-03-21T12:56:39;6.53;;;4.70;;
3341;SDS011;1684;50.748;6.154;2023-03-21T12:59:14;7.47;;;4.33;;
3341;SDS011;1684;50.748;6.154;2023-03-21T13:01:45;9.30;;;5.70;;
3341;SDS011;1684;50.748;6.154;2023-03-21T13:04:30;7.33;;;4.23;;
3341;SDS011;1684;50.748;6.154;2023-03-21T13:07:00;10.70;;;5.90;;
3341;SDS011;1684;50.748;6.154;2023-03-21T13:09:32;9.20;;;4.93;;
3341;SDS011;1684;50.748;6.154;2023-03-21T13:12:05;7.00;;;4.43;;
3341;SDS011;1684;50.748;6.154;2023-03-21T13:14:36;6.83;;;4.30;;
3341;SDS011;1684;50.748;6.154;2023-03-21T13:17:05;6.60;;;5.03;;
3341;SDS011;1684;50.748;6.154;2023-03-21T13:19:39;13.23;;;5.53;;
3341;SDS011;1684;50.748;6.154;2023-03-21T13:22:13;8.53;;;4.70;;
3341;SDS011;1684;50.748;6.154;2023-03-21T13:24:49;8.93;;;4.73;;
3341;SDS011;1684;50.748;6.154;2023-03-21T13:27:25;6.10;;;3.73;;
3341;SDS011;1684;50.748;6.154;2023-03-21T13:29:57;6.87;;;3.90;;
3341;SDS011;1684;50.748;6.154;2023-03-21T13:32:27;18.50;;;4.83;;
3341;SDS011;1684;50.748;6.154;2023-03-21T13:34:58;9.40;;;4.50;;
3341;SDS011;1684;50.748;6.154;2023-03-21T13:37:30;10.50;;;4.90;;
3341;SDS011;1684;50.748;6.154;2023-03-21T13:40:00;9.30;;;4.40;;
3341;SDS011;1684;50.748;6.154;2023-03-21T13:42:35;8.70;;;4.10;;
3341;SDS011;1684;50.748;6.154;2023-03-21T13:45:10;13.03;;;4.43;;
3341;SDS011;1684;50.748;6.154;2023-03-21T13:47:40;9.03;;;3.67;;
3341;SDS011;1684;50.748;6.154;2023-03-21T13:50:26;6.97;;;4.63;;
3341;SDS011;1684;50.748;6.154;2023-03-21T13:55:45;6.13;;;3.37;;
3341;SDS011;1684;50.748;6.154;2023-03-21T13:58:22;5.20;;;2.80;;
3341;SDS011;1684;50.748;6.154;2023-03-21T14:01:03;5.50;;;3.03;;
3341;SDS011;1684;50.748;6.154;2023-03-21T14:03:33;7.00;;;3.60;;
3341;SDS011;1684;50.748;6.154;2023-03-21T14:06:01;8.50;;;3.77;;
3341;SDS011;1684;50.748;6.154;2023-03-21T14:08:30;5.00;;;3.20;;
3341;SDS011;1684;50.748;6.154;2023-03-21T14:11:06;5.80;;;3.60;;
3341;SDS011;1684;50.748;6.154;2023-03-21T14:13:35;9.60;;;3.30;;
3341;SDS011;1684;50.748;6.154;2023-03-21T14:16:16;5.87;;;3.50;;
3341;SDS011;1684;50.748;6.154;2023-03-21T14:18:47;5.17;;;2.73;;
3341;SDS011;1684;50.748;6.154;2023-03-21T14:21:21;6.10;;;3.20;;
3341;SDS011;1684;50.748;6.154;2023-03-21T14:24:00;4.27;;;2.83;;
3341;SDS011;1684;50.748;6.154;2023-03-21T14:26:31;4.93;;;2.50;;
3341;SDS011;1684;50.748;6.154;2023-03-21T14:29:01;4.50;;;2.13;;
3341;SDS011;1684;50.748;6.154;2023-03-21T14:31:32;4.20;;;2.70;;
3341;SDS011;1684;50.748;6.154;2023-03-21T14:34:01;5.10;;;2.43;;
3341;SDS011;1684;50.748;6.154;2023-03-21T14:36:30;4.67;;;2.40;;
3341;SDS011;1684;50.748;6.154;2023-03-21T14:39:03;7.00;;;3.40;;
3341;SDS011;1684;50.748;6.154;2023-03-21T14:41:42;4.40;;;1.90;;
3341;SDS011;1684;50.748;6.154;2023-03-21T14:44:13;5.10;;;2.23;;
3341;SDS011;1684;50.748;6.154;2023-03-21T14:46:41;5.93;;;3.00;;
3341;SDS011;1684;50.748;6.154;2023-03-21T14:49:11;5.30;;;2.23;;
3341;SDS011;1684;50.748;6.154;2023-03-21T14:51:39;4.77;;;2.57;;
3341;SDS011;1684;50.748;6.154;2023-03-21T14:54:10;4.13;;;2.30;;
3341;SDS011;1684;50.748;6.154;2023-03-21T14:56:41;5.60;;;2.47;;
3341;SDS011;1684;50.748;6.154;2023-03-21T14:59:10;3.90;;;2.03;;
3341;SDS011;1684;50.748;6.154;2023-03-21T15:01:40;6.20;;;2.40;;
3341;SDS011;1684;50.748;6.154;2023-03-21T15:04:10;5.53;;;2.43;;
3341;SDS011;1684;50.748;6.154;2023-03-21T15:06:49;3.97;;;2.23;;
3341;SDS011;1684;50.748;6.154;2023-03-21T15:09:18;5.93;;;2.30;;
3341;SDS011;1684;50.748;6.154;2023-03-21T15:11:49;9.63;;;3.00;;
3341;SDS011;1684;50.748;6.154;2023-03-21T15:14:18;5.47;;;2.70;;
3341;SDS011;1684;50.748;6.154;2023-03-21T15:16:47;7.53;;;2.80;;
3341;SDS011;1684;50.748;6.154;2023-03-21T15:19:16;5.27;;;2.87;;
3341;SDS011;1684;50.748;6.154;2023-03-21T15:21:47;5.27;;;2.60;;
3341;SDS011;1684;50.748;6.154;2023-03-21T15:24:16;4.23;;;2.30;;
3341;SDS011;1684;50.748;6.154;2023-03-21T15:26:50;5.40;;;2.67;;
3341;SDS011;1684;50.748;6.154;2023-03-21T15:29:23;4.70;;;2.40;;
3341;SDS011;1684;50.748;6.154;2023-03-21T15:31:52;5.80;;;2.07;;
3341;SDS011;1684;50.748;6.154;2023-03-21T15:34:21;4.83;;;2.30;;
3341;SDS011;1684;50.748;6.154;2023-03-21T15:36:54;3.30;;;1.87;;
3341;SDS011;1684;50.748;6.154;2023-03-21T15:39:22;4.37;;;2.00;;